sensor_id;sensor_type;location;lat;lon;timestamp;temperature;humidity
12438;DHT22;6283;51.330;12.374;2022-12-29T00:01:39;9.30;1.00
12438;DHT22;6283;51.330;12.374;2022-12-29T00:04:05;9.30;1.00
12438;DHT22;6283;51.330;12.374;2022-12-29T00:06:31;9.30;1.00
12438;DHT22;6283;51.330;12.374;2022-12-29T00:08:58;9.20;1.00
12438;DHT22;6283;51.330;12.374;2022-12-29T00:11:26;9.10;1.00
12438;DHT22;6283;51.330;12.374;2022-12-29T00:13:52;9.20;1.00
12438;DHT22;6283;51.330;12.374;2022-12-29T00:16:38;9.50;1.00
12438;DHT22;6283;51.330;12.374;2022-12-29T00:19:05;9.40;1.00
12438;DHT22;6283;51.330;12.374;2022-12-29T00:21:31;9.50;1.00
12438;DHT22;6283;51.330;12.374;2022-12-29T00:24:20;9.30;1.00
12438;DHT22;6283;51.330;12.374;2022-12-29T00:27:10;9.20;1.00
12438;DHT22;6283;51.330;12.374;2022-12-29T00:29:54;9.40;1.00
12438;DHT22;6283;51.330;12.374;2022-12-29T00:32:39;9.50;1.00
12438;DHT22;6283;51.330;12.374;2022-12-29T00:35:35;9.50;1.00
12438;DHT22;6283;51.330;12.374;2022-12-29T00:38:04;9.70;1.00
12438;DHT22;6283;51.330;12.374;2022-12-29T00:40:49;9.40;1.00
12438;DHT22;6283;51.330;12.374;2022-12-29T00:43:33;9.60;1.00
12438;DHT22;6283;51.330;12.374;2022-12-29T00:46:17;9.40;1.00
12438;DHT22;6283;51.330;12.374;2022-12-29T00:48:43;9.70;1.00
12438;DHT22;6283;51.330;12.374;2022-12-29T00:51:27;9.70;1.00
12438;DHT22;6283;51.330;12.374;2022-12-29T00:53:53;9.70;1.00
12438;DHT22;6283;51.330;12.374;2022-12-29T00:56:18;9.90;1.00
12438;DHT22;6283;51.330;12.374;2022-12-29T00:58:44;9.90;1.00
12438;DHT22;6283;51.330;12.374;2022-12-29T01:01:10;9.80;1.00
12438;DHT22;6283;51.330;12.374;2022-12-29T01:03:37;9.60;1.00
12438;DHT22;6283;51.330;12.374;2022-12-29T01:06:05;9.90;1.00
12438;DHT22;6283;51.330;12.374;2022-12-29T01:08:31;10.20;1.00
12438;DHT22;6283;51.330;12.374;2022-12-29T01:11:09;9.80;1.00
12438;DHT22;6283;51.330;12.374;2022-12-29T01:13:35;10.10;1.00
12438;DHT22;6283;51.330;12.374;2022-12-29T01:16:01;10.10;1.00
12438;DHT22;6283;51.330;12.374;2022-12-29T01:18:27;10.10;1.00
12438;DHT22;6283;51.330;12.374;2022-12-29T01:21:04;10.10;1.00
12438;DHT22;6283;51.330;12.374;2022-12-29T01:23:30;10.00;1.00
12438;DHT22;6283;51.330;12.374;2022-12-29T01:25:56;10.30;1.00
12438;DHT22;6283;51.330;12.374;2022-12-29T01:28:22;10.20;1.00
12438;DHT22;6283;51.330;12.374;2022-12-29T01:30:48;10.20;1.00
12438;DHT22;6283;51.330;12.374;2022-12-29T01:33:13;10.20;1.00
12438;DHT22;6283;51.330;12.374;2022-12-29T01:35:39;10.20;1.00
12438;DHT22;6283;51.330;12.374;2022-12-29T01:38:05;10.20;1.00
12438;DHT22;6283;51.330;12.374;2022-12-29T01:40:30;10.40;1.00
12438;DHT22;6283;51.330;12.374;2022-12-29T01:42:56;10.40;1.00
12438;DHT22;6283;51.330;12.374;2022-12-29T01:45:22;10.30;1.00
12438;DHT22;6283;51.330;12.374;2022-12-29T01:47:52;10.40;1.00
12438;DHT22;6283;51.330;12.374;2022-12-29T01:50:26;10.20;1.00
12438;DHT22;6283;51.330;12.374;2022-12-29T01:53:01;10.50;1.00
12438;DHT22;6283;51.330;12.374;2022-12-29T01:55:30;10.20;1.00
12438;DHT22;6283;51.330;12.374;2022-12-29T01:58:01;10.50;1.00
12438;DHT22;6283;51.330;12.374;2022-12-29T02:00:28;10.60;1.00
12438;DHT22;6283;51.330;12.374;2022-12-29T02:02:54;10.30;1.00
12438;DHT22;6283;51.330;12.374;2022-12-29T02:05:23;10.30;1.00
12438;DHT22;6283;51.330;12.374;2022-12-29T02:07:50;10.50;1.00
12438;DHT22;6283;51.330;12.374;2022-12-29T02:10:21;10.50;1.00
12438;DHT22;6283;51.330;12.374;2022-12-29T02:12:48;10.60;1.00
12438;DHT22;6283;51.330;12.374;2022-12-29T02:15:14;10.30;1.00
12438;DHT22;6283;51.330;12.374;2022-12-29T02:18:02;10.60;1.00
12438;DHT22;6283;51.330;12.374;2022-12-29T02:31:29;10.80;1.00
12438;DHT22;6283;51.330;12.374;2022-12-29T02:37:00;10.70;1.00
12438;DHT22;6283;51.330;12.374;2022-12-29T02:39:46;10.50;1.00
12438;DHT22;6283;51.330;12.374;2022-12-29T02:42:46;10.60;1.00
12438;DHT22;6283;51.330;12.374;2022-12-29T02:45:21;10.60;1.00
12438;DHT22;6283;51.330;12.374;2022-12-29T02:47:49;10.80;1.00
12438;DHT22;6283;51.330;12.374;2022-12-29T02:50:23;10.80;1.00
12438;DHT22;6283;51.330;12.374;2022-12-29T02:52:58;10.70;1.00
12438;DHT22;6283;51.330;12.374;2022-12-29T02:55:24;10.70;1.00
12438;DHT22;6283;51.330;12.374;2022-12-29T02:58:20;10.80;1.00
12438;DHT22;6283;51.330;12.374;2022-12-29T03:03:50;10.70;1.00
12438;DHT22;6283;51.330;12.374;2022-12-29T03:09:26;10.80;1.00
12438;DHT22;6283;51.330;12.374;2022-12-29T03:12:18;10.50;1.00
12438;DHT22;6283;51.330;12.374;2022-12-29T03:15:02;10.70;1.00
12438;DHT22;6283;51.330;12.374;2022-12-29T03:18:21;10.70;1.00
12438;DHT22;6283;51.330;12.374;2022-12-29T03:21:03;10.40;1.00
12438;DHT22;6283;51.330;12.374;2022-12-29T03:23:31;10.50;1.00
12438;DHT22;6283;51.330;12.374;2022-12-29T03:26:02;10.80;1.00
12438;DHT22;6283;51.330;12.374;2022-12-29T03:28:36;10.80;1.00
12438;DHT22;6283;51.330;12.374;2022-12-29T03:31:04;10.70;1.00
12438;DHT22;6283;51.330;12.374;2022-12-29T03:33:32;10.70;1.00
12438;DHT22;6283;51.330;12.374;2022-12-29T03:36:01;10.80;1.00
12438;DHT22;6283;51.330;12.374;2022-12-29T03:39:02;10.70;1.00
12438;DHT22;6283;51.330;12.374;2022-12-29T03:41:31;10.40;1.00
12438;DHT22;6283;51.330;12.374;2022-12-29T03:43:57;10.60;1.00
12438;DHT22;6283;51.330;12.374;2022-12-29T03:46:23;10.70;1.00
12438;DHT22;6283;51.330;12.374;2022-12-29T03:48:48;10.60;1.00
12438;DHT22;6283;51.330;12.374;2022-12-29T03:51:14;10.60;1.00
12438;DHT22;6283;51.330;12.374;2022-12-29T03:53:39;10.50;1.00
12438;DHT22;6283;51.330;12.374;2022-12-29T03:56:05;10.40;1.00
12438;DHT22;6283;51.330;12.374;2022-12-29T03:58:31;10.80;1.00
12438;DHT22;6283;51.330;12.374;2022-12-29T04:00:57;10.80;1.00
12438;DHT22;6283;51.330;12.374;2022-12-29T04:03:22;10.50;1.00
12438;DHT22;6283;51.330;12.374;2022-12-29T04:05:48;10.90;1.00
12438;DHT22;6283;51.330;12.374;2022-12-29T04:08:13;10.70;1.00
12438;DHT22;6283;51.330;12.374;2022-12-29T04:10:39;10.90;1.00
12438;DHT22;6283;51.330;12.374;2022-12-29T04:13:05;10.70;1.00
12438;DHT22;6283;51.330;12.374;2022-12-29T04:15:30;10.70;1.00
12438;DHT22;6283;51.330;12.374;2022-12-29T04:17:56;10.70;1.00
12438;DHT22;6283;51.330;12.374;2022-12-29T04:20:22;10.50;1.00
12438;DHT22;6283;51.330;12.374;2022-12-29T04:23:06;10.80;1.00
12438;DHT22;6283;51.330;12.374;2022-12-29T04:25:32;10.70;1.00
12438;DHT22;6283;51.330;12.374;2022-12-29T04:27:58;10.50;1.00
12438;DHT22;6283;51.330;12.374;2022-12-29T04:30:24;10.50;1.00
12438;DHT22;6283;51.330;12.374;2022-12-29T04:32:50;10.80;1.00
12438;DHT22;6283;51.330;12.374;2022-12-29T04:35:15;10.60;1.00
12438;DHT22;6283;51.330;12.374;2022-12-29T04:37:41;10.60;1.00
12438;DHT22;6283;51.330;12.374;2022-12-29T04:40:07;10.80;1.00
12438;DHT22;6283;51.330;12.374;2022-12-29T04:42:33;10.80;1.00
12438;DHT22;6283;51.330;12.374;2022-12-29T04:44:59;10.70;1.00
12438;DHT22;6283;51.330;12.374;2022-12-29T04:47:24;11.00;1.00
12438;DHT22;6283;51.330;12.374;2022-12-29T04:49:50;10.90;1.00
12438;DHT22;6283;51.330;12.374;2022-12-29T04:52:15;10.90;1.00
12438;DHT22;6283;51.330;12.374;2022-12-29T04:54:41;10.90;1.00
12438;DHT22;6283;51.330;12.374;2022-12-29T04:57:06;11.00;1.00
12438;DHT22;6283;51.330;12.374;2022-12-29T04:59:32;10.90;1.00
12438;DHT22;6283;51.330;12.374;2022-12-29T05:01:58;10.90;1.00
12438;DHT22;6283;51.330;12.374;2022-12-29T05:04:23;11.00;1.00
12438;DHT22;6283;51.330;12.374;2022-12-29T05:06:49;11.00;1.00
12438;DHT22;6283;51.330;12.374;2022-12-29T05:09:14;11.10;1.00
12438;DHT22;6283;51.330;12.374;2022-12-29T05:11:40;10.80;1.00
12438;DHT22;6283;51.330;12.374;2022-12-29T05:14:06;10.80;1.00
12438;DHT22;6283;51.330;12.374;2022-12-29T05:16:31;10.90;1.00
12438;DHT22;6283;51.330;12.374;2022-12-29T05:18:57;11.10;1.00
12438;DHT22;6283;51.330;12.374;2022-12-29T05:21:22;10.90;1.00
12438;DHT22;6283;51.330;12.374;2022-12-29T05:23:48;11.00;1.00
12438;DHT22;6283;51.330;12.374;2022-12-29T05:26:13;11.00;1.00
12438;DHT22;6283;51.330;12.374;2022-12-29T05:28:39;10.90;1.00
12438;DHT22;6283;51.330;12.374;2022-12-29T05:31:05;10.90;1.00
12438;DHT22;6283;51.330;12.374;2022-12-29T05:33:30;10.60;1.00
12438;DHT22;6283;51.330;12.374;2022-12-29T05:35:56;10.60;1.00
12438;DHT22;6283;51.330;12.374;2022-12-29T05:38:21;10.80;1.00
12438;DHT22;6283;51.330;12.374;2022-12-29T05:40:47;10.90;1.00
12438;DHT22;6283;51.330;12.374;2022-12-29T05:43:12;10.80;1.00
12438;DHT22;6283;51.330;12.374;2022-12-29T05:45:38;10.80;1.00
12438;DHT22;6283;51.330;12.374;2022-12-29T05:48:04;10.80;1.00
12438;DHT22;6283;51.330;12.374;2022-12-29T05:50:29;10.60;1.00
12438;DHT22;6283;51.330;12.374;2022-12-29T05:52:55;10.80;1.00
12438;DHT22;6283;51.330;12.374;2022-12-29T05:55:20;10.70;1.00
12438;DHT22;6283;51.330;12.374;2022-12-29T05:57:46;10.70;1.00
12438;DHT22;6283;51.330;12.374;2022-12-29T06:00:12;10.70;1.00
12438;DHT22;6283;51.330;12.374;2022-12-29T06:02:38;10.50;1.00
12438;DHT22;6283;51.330;12.374;2022-12-29T06:05:04;10.80;1.00
12438;DHT22;6283;51.330;12.374;2022-12-29T06:07:30;10.70;1.00
12438;DHT22;6283;51.330;12.374;2022-12-29T06:09:56;10.80;1.00
12438;DHT22;6283;51.330;12.374;2022-12-29T06:12:21;10.80;1.00
12438;DHT22;6283;51.330;12.374;2022-12-29T06:14:47;10.80;1.00
12438;DHT22;6283;51.330;12.374;2022-12-29T06:17:12;10.80;1.00
12438;DHT22;6283;51.330;12.374;2022-12-29T06:19:38;10.80;1.00
12438;DHT22;6283;51.330;12.374;2022-12-29T06:22:04;10.90;1.00
12438;DHT22;6283;51.330;12.374;2022-12-29T06:24:30;10.80;1.00
12438;DHT22;6283;51.330;12.374;2022-12-29T06:26:55;10.80;1.00
12438;DHT22;6283;51.330;12.374;2022-12-29T06:29:21;10.80;1.00
12438;DHT22;6283;51.330;12.374;2022-12-29T06:31:46;10.90;1.00
12438;DHT22;6283;51.330;12.374;2022-12-29T06:34:14;10.80;1.00
12438;DHT22;6283;51.330;12.374;2022-12-29T06:36:40;10.80;1.00
12438;DHT22;6283;51.330;12.374;2022-12-29T06:39:05;10.70;1.00
12438;DHT22;6283;51.330;12.374;2022-12-29T06:41:31;10.50;1.00
12438;DHT22;6283;51.330;12.374;2022-12-29T06:43:57;10.80;1.00
12438;DHT22;6283;51.330;12.374;2022-12-29T06:46:22;10.80;1.00
12438;DHT22;6283;51.330;12.374;2022-12-29T06:48:48;11.00;1.00
12438;DHT22;6283;51.330;12.374;2022-12-29T06:51:14;10.60;1.00
12438;DHT22;6283;51.330;12.374;2022-12-29T06:53:39;10.70;1.00
12438;DHT22;6283;51.330;12.374;2022-12-29T06:56:05;10.70;1.00
12438;DHT22;6283;51.330;12.374;2022-12-29T06:58:30;11.00;1.00
12438;DHT22;6283;51.330;12.374;2022-12-29T07:00:56;10.80;1.00
12438;DHT22;6283;51.330;12.374;2022-12-29T07:03:22;11.00;1.00
12438;DHT22;6283;51.330;12.374;2022-12-29T07:05:47;10.70;1.00
12438;DHT22;6283;51.330;12.374;2022-12-29T07:08:13;10.70;1.00
12438;DHT22;6283;51.330;12.374;2022-12-29T07:10:39;10.80;1.00
12438;DHT22;6283;51.330;12.374;2022-12-29T07:13:04;10.70;1.00
12438;DHT22;6283;51.330;12.374;2022-12-29T07:15:32;10.40;1.00
12438;DHT22;6283;51.330;12.374;2022-12-29T07:17:57;10.70;1.00
12438;DHT22;6283;51.330;12.374;2022-12-29T07:20:23;10.40;1.00
12438;DHT22;6283;51.330;12.374;2022-12-29T07:22:49;10.60;1.00
12438;DHT22;6283;51.330;12.374;2022-12-29T07:25:14;10.50;1.00
12438;DHT22;6283;51.330;12.374;2022-12-29T07:27:40;10.70;1.00
12438;DHT22;6283;51.330;12.374;2022-12-29T07:30:06;10.50;1.00
12438;DHT22;6283;51.330;12.374;2022-12-29T07:32:35;10.40;1.00
12438;DHT22;6283;51.330;12.374;2022-12-29T07:35:01;10.60;1.00
12438;DHT22;6283;51.330;12.374;2022-12-29T07:37:27;10.60;1.00
12438;DHT22;6283;51.330;12.374;2022-12-29T07:39:53;10.50;1.00
12438;DHT22;6283;51.330;12.374;2022-12-29T07:42:18;10.60;1.00
12438;DHT22;6283;51.330;12.374;2022-12-29T07:44:44;10.50;1.00
12438;DHT22;6283;51.330;12.374;2022-12-29T07:47:10;10.60;1.00
12438;DHT22;6283;51.330;12.374;2022-12-29T07:49:35;10.80;1.00
12438;DHT22;6283;51.330;12.374;2022-12-29T07:52:01;10.70;1.00
12438;DHT22;6283;51.330;12.374;2022-12-29T07:54:26;11.00;1.00
12438;DHT22;6283;51.330;12.374;2022-12-29T07:56:52;10.80;1.00
12438;DHT22;6283;51.330;12.374;2022-12-29T07:59:18;10.90;1.00
12438;DHT22;6283;51.330;12.374;2022-12-29T08:01:43;10.50;1.00
12438;DHT22;6283;51.330;12.374;2022-12-29T08:04:09;10.70;1.00
12438;DHT22;6283;51.330;12.374;2022-12-29T08:06:35;10.60;1.00
12438;DHT22;6283;51.330;12.374;2022-12-29T08:09:01;11.10;1.00
12438;DHT22;6283;51.330;12.374;2022-12-29T08:11:27;11.10;1.00
12438;DHT22;6283;51.330;12.374;2022-12-29T08:13:52;10.90;1.00
12438;DHT22;6283;51.330;12.374;2022-12-29T08:16:18;11.00;1.00
12438;DHT22;6283;51.330;12.374;2022-12-29T08:18:44;11.10;1.00
12438;DHT22;6283;51.330;12.374;2022-12-29T08:21:09;10.90;1.00
12438;DHT22;6283;51.330;12.374;2022-12-29T08:23:35;11.00;1.00
12438;DHT22;6283;51.330;12.374;2022-12-29T08:26:04;11.10;1.00
12438;DHT22;6283;51.330;12.374;2022-12-29T08:28:31;11.00;1.00
12438;DHT22;6283;51.330;12.374;2022-12-29T08:30:58;10.90;1.00
12438;DHT22;6283;51.330;12.374;2022-12-29T08:33:24;11.10;1.00
12438;DHT22;6283;51.330;12.374;2022-12-29T08:35:50;11.00;1.00
12438;DHT22;6283;51.330;12.374;2022-12-29T08:38:16;11.30;1.00
12438;DHT22;6283;51.330;12.374;2022-12-29T08:40:42;11.00;1.00
12438;DHT22;6283;51.330;12.374;2022-12-29T08:43:08;10.90;1.00
12438;DHT22;6283;51.330;12.374;2022-12-29T08:45:34;11.20;1.00
12438;DHT22;6283;51.330;12.374;2022-12-29T08:47:59;11.00;1.00
12438;DHT22;6283;51.330;12.374;2022-12-29T08:50:25;11.00;1.00
12438;DHT22;6283;51.330;12.374;2022-12-29T08:52:51;11.20;1.00
12438;DHT22;6283;51.330;12.374;2022-12-29T08:55:16;11.20;1.00
12438;DHT22;6283;51.330;12.374;2022-12-29T08:57:42;11.20;1.00
12438;DHT22;6283;51.330;12.374;2022-12-29T09:00:08;11.40;1.00
12438;DHT22;6283;51.330;12.374;2022-12-29T09:02:34;11.20;1.00
12438;DHT22;6283;51.330;12.374;2022-12-29T09:04:59;11.50;1.00
12438;DHT22;6283;51.330;12.374;2022-12-29T09:07:26;11.30;1.00
12438;DHT22;6283;51.330;12.374;2022-12-29T09:09:52;11.40;1.00
12438;DHT22;6283;51.330;12.374;2022-12-29T09:12:17;11.50;1.00
12438;DHT22;6283;51.330;12.374;2022-12-29T09:14:43;11.70;1.00
12438;DHT22;6283;51.330;12.374;2022-12-29T09:17:10;11.50;1.00
12438;DHT22;6283;51.330;12.374;2022-12-29T09:19:55;11.60;1.00
12438;DHT22;6283;51.330;12.374;2022-12-29T09:22:20;11.50;1.00
12438;DHT22;6283;51.330;12.374;2022-12-29T09:24:46;11.60;1.00
12438;DHT22;6283;51.330;12.374;2022-12-29T09:27:12;11.90;1.00
12438;DHT22;6283;51.330;12.374;2022-12-29T09:29:37;12.00;1.00
12438;DHT22;6283;51.330;12.374;2022-12-29T09:32:03;11.80;1.00
12438;DHT22;6283;51.330;12.374;2022-12-29T09:34:29;12.20;1.00
12438;DHT22;6283;51.330;12.374;2022-12-29T09:36:54;12.30;1.00
12438;DHT22;6283;51.330;12.374;2022-12-29T09:39:21;12.20;1.00
12438;DHT22;6283;51.330;12.374;2022-12-29T09:47:36;12.40;1.00
12438;DHT22;6283;51.330;12.374;2022-12-29T09:50:20;12.50;1.00
12438;DHT22;6283;51.330;12.374;2022-12-29T09:53:30;12.50;1.00
12438;DHT22;6283;51.330;12.374;2022-12-29T09:55:56;12.40;1.00
12438;DHT22;6283;51.330;12.374;2022-12-29T09:58:25;12.50;1.00
12438;DHT22;6283;51.330;12.374;2022-12-29T10:01:03;12.70;1.00
12438;DHT22;6283;51.330;12.374;2022-12-29T10:03:50;12.60;1.00
12438;DHT22;6283;51.330;12.374;2022-12-29T10:06:26;12.80;1.00
12438;DHT22;6283;51.330;12.374;2022-12-29T10:09:08;12.90;1.00
12438;DHT22;6283;51.330;12.374;2022-12-29T10:17:05;13.00;1.00
12438;DHT22;6283;51.330;12.374;2022-12-29T10:25:20;12.80;1.00
12438;DHT22;6283;51.330;12.374;2022-12-29T10:27:49;12.80;1.00
12438;DHT22;6283;51.330;12.374;2022-12-29T10:30:15;12.80;1.00
12438;DHT22;6283;51.330;12.374;2022-12-29T10:35:20;12.70;1.00
12438;DHT22;6283;51.330;12.374;2022-12-29T10:37:59;12.60;1.00
12438;DHT22;6283;51.330;12.374;2022-12-29T10:40:36;12.80;1.00
12438;DHT22;6283;51.330;12.374;2022-12-29T10:43:20;12.50;1.00
12438;DHT22;6283;51.330;12.374;2022-12-29T10:45:47;12.60;1.00
12438;DHT22;6283;51.330;12.374;2022-12-29T10:48:22;12.80;1.00
12438;DHT22;6283;51.330;12.374;2022-12-29T10:50:50;12.70;1.00
12438;DHT22;6283;51.330;12.374;2022-12-29T10:53:24;12.80;1.00
12438;DHT22;6283;51.330;12.374;2022-12-29T10:55:51;12.80;1.00
12438;DHT22;6283;51.330;12.374;2022-12-29T10:58:17;12.70;1.00
12438;DHT22;6283;51.330;12.374;2022-12-29T11:00:49;13.00;1.00
12438;DHT22;6283;51.330;12.374;2022-12-29T11:08:21;13.30;1.00
12438;DHT22;6283;51.330;12.374;2022-12-29T11:11:04;13.10;1.00
12438;DHT22;6283;51.330;12.374;2022-12-29T11:13:34;13.30;1.00
12438;DHT22;6283;51.330;12.374;2022-12-29T11:16:00;13.20;1.00
12438;DHT22;6283;51.330;12.374;2022-12-29T11:18:28;13.40;1.00
12438;DHT22;6283;51.330;12.374;2022-12-29T11:21:02;13.40;1.00
12438;DHT22;6283;51.330;12.374;2022-12-29T11:23:41;13.50;1.00
12438;DHT22;6283;51.330;12.374;2022-12-29T11:28:33;13.60;1.00
12438;DHT22;6283;51.330;12.374;2022-12-29T11:31:03;13.80;1.00
12438;DHT22;6283;51.330;12.374;2022-12-29T11:33:30;13.80;1.00
12438;DHT22;6283;51.330;12.374;2022-12-29T11:36:02;13.70;1.00
12438;DHT22;6283;51.330;12.374;2022-12-29T11:38:34;14.10;1.00
12438;DHT22;6283;51.330;12.374;2022-12-29T11:41:02;14.00;1.00
12438;DHT22;6283;51.330;12.374;2022-12-29T11:43:38;14.00;1.00
12438;DHT22;6283;51.330;12.374;2022-12-29T11:46:05;14.20;1.00
12438;DHT22;6283;51.330;12.374;2022-12-29T11:48:41;14.10;1.00
12438;DHT22;6283;51.330;12.374;2022-12-29T11:51:08;14.00;1.00
12438;DHT22;6283;51.330;12.374;2022-12-29T11:53:41;14.00;1.00
12438;DHT22;6283;51.330;12.374;2022-12-29T11:56:14;13.90;1.00
12438;DHT22;6283;51.330;12.374;2022-12-29T11:58:41;13.90;1.00
12438;DHT22;6283;51.330;12.374;2022-12-29T12:01:09;13.90;1.00
12438;DHT22;6283;51.330;12.374;2022-12-29T12:03:40;13.80;1.00
12438;DHT22;6283;51.330;12.374;2022-12-29T12:06:13;13.70;1.00
12438;DHT22;6283;51.330;12.374;2022-12-29T12:08:46;13.90;1.00
12438;DHT22;6283;51.330;12.374;2022-12-29T12:11:22;13.80;1.00
12438;DHT22;6283;51.330;12.374;2022-12-29T12:14:01;14.00;1.00
12438;DHT22;6283;51.330;12.374;2022-12-29T12:16:35;14.00;1.00
12438;DHT22;6283;51.330;12.374;2022-12-29T12:21:47;14.40;1.00
12438;DHT22;6283;51.330;12.374;2022-12-29T12:29:56;15.00;1.00
12438;DHT22;6283;51.330;12.374;2022-12-29T12:32:39;15.00;1.00
12438;DHT22;6283;51.330;12.374;2022-12-29T12:35:14;15.00;1.00
12438;DHT22;6283;51.330;12.374;2022-12-29T12:37:52;14.90;1.00
12438;DHT22;6283;51.330;12.374;2022-12-29T12:45:53;14.50;1.00
12438;DHT22;6283;51.330;12.374;2022-12-29T12:48:43;14.40;1.00
12438;DHT22;6283;51.330;12.374;2022-12-29T12:54:43;13.90;1.00
12438;DHT22;6283;51.330;12.374;2022-12-29T13:02:49;13.70;1.00
12438;DHT22;6283;51.330;12.374;2022-12-29T13:22:42;13.70;1.00
12438;DHT22;6283;51.330;12.374;2022-12-29T13:25:30;13.80;1.00
12438;DHT22;6283;51.330;12.374;2022-12-29T13:28:06;13.90;1.00
12438;DHT22;6283;51.330;12.374;2022-12-29T13:33:40;13.70;1.00
12438;DHT22;6283;51.330;12.374;2022-12-29T13:39:09;13.70;1.00
12438;DHT22;6283;51.330;12.374;2022-12-29T13:41:54;13.40;1.00
12438;DHT22;6283;51.330;12.374;2022-12-29T13:47:29;13.30;1.00
12438;DHT22;6283;51.330;12.374;2022-12-29T13:49:57;13.50;1.00
12438;DHT22;6283;51.330;12.374;2022-12-29T14:00:57;13.50;1.00
12438;DHT22;6283;51.330;12.374;2022-12-29T14:06:29;13.30;1.00
12438;DHT22;6283;51.330;12.374;2022-12-29T14:11:32;13.30;1.00
12438;DHT22;6283;51.330;12.374;2022-12-29T14:13:59;13.10;1.00
12438;DHT22;6283;51.330;12.374;2022-12-29T14:16:36;13.20;1.00
12438;DHT22;6283;51.330;12.374;2022-12-29T14:19:23;12.90;1.00
12438;DHT22;6283;51.330;12.374;2022-12-29T14:22:01;12.90;1.00
12438;DHT22;6283;51.330;12.374;2022-12-29T14:29:49;12.80;1.00
12438;DHT22;6283;51.330;12.374;2022-12-29T14:34:55;12.60;1.00
12438;DHT22;6283;51.330;12.374;2022-12-29T14:37:35;12.70;1.00
12438;DHT22;6283;51.330;12.374;2022-12-29T14:40:27;12.40;1.00
12438;DHT22;6283;51.330;12.374;2022-12-29T14:42:54;12.40;1.00
12438;DHT22;6283;51.330;12.374;2022-12-29T14:47:50;12.30;1.00
12438;DHT22;6283;51.330;12.374;2022-12-29T14:52:50;12.30;1.00
12438;DHT22;6283;51.330;12.374;2022-12-29T14:57:46;12.40;1.00
12438;DHT22;6283;51.330;12.374;2022-12-29T15:00:18;12.30;1.00
12438;DHT22;6283;51.330;12.374;2022-12-29T15:03:32;12.30;1.00
12438;DHT22;6283;51.330;12.374;2022-12-29T15:08:24;12.10;1.00
12438;DHT22;6283;51.330;12.374;2022-12-29T15:13:37;12.40;1.00
12438;DHT22;6283;51.330;12.374;2022-12-29T15:16:04;12.20;1.00
12438;DHT22;6283;51.330;12.374;2022-12-29T15:18:32;12.30;1.00
12438;DHT22;6283;51.330;12.374;2022-12-29T15:21:05;12.20;1.00
12438;DHT22;6283;51.330;12.374;2022-12-29T15:23:33;12.20;1.00
12438;DHT22;6283;51.330;12.374;2022-12-29T15:26:06;12.00;1.00
12438;DHT22;6283;51.330;12.374;2022-12-29T15:28:44;12.00;1.00
12438;DHT22;6283;51.330;12.374;2022-12-29T15:31:21;12.00;1.00
12438;DHT22;6283;51.330;12.374;2022-12-29T15:33:51;12.00;1.00
12438;DHT22;6283;51.330;12.374;2022-12-29T15:36:28;12.20;1.00
12438;DHT22;6283;51.330;12.374;2022-12-29T15:38:54;11.90;1.00
12438;DHT22;6283;51.330;12.374;2022-12-29T15:41:43;11.90;1.00
12438;DHT22;6283;51.330;12.374;2022-12-29T15:44:41;11.70;1.00
12438;DHT22;6283;51.330;12.374;2022-12-29T15:47:34;11.80;1.00
12438;DHT22;6283;51.330;12.374;2022-12-29T15:50:04;11.50;1.00
12438;DHT22;6283;51.330;12.374;2022-12-29T15:52:32;11.60;1.00
12438;DHT22;6283;51.330;12.374;2022-12-29T15:54:59;11.40;1.00
12438;DHT22;6283;51.330;12.374;2022-12-29T15:57:30;11.40;1.00
12438;DHT22;6283;51.330;12.374;2022-12-29T15:59:56;11.50;1.00
12438;DHT22;6283;51.330;12.374;2022-12-29T16:02:22;11.40;1.00
12438;DHT22;6283;51.330;12.374;2022-12-29T16:04:50;11.60;1.00
12438;DHT22;6283;51.330;12.374;2022-12-29T16:07:30;11.20;1.00
12438;DHT22;6283;51.330;12.374;2022-12-29T16:09:59;11.30;1.00
12438;DHT22;6283;51.330;12.374;2022-12-29T16:12:34;11.20;1.00
12438;DHT22;6283;51.330;12.374;2022-12-29T16:15:05;11.20;1.00
12438;DHT22;6283;51.330;12.374;2022-12-29T16:17:36;11.00;1.00
12438;DHT22;6283;51.330;12.374;2022-12-29T16:20:31;11.10;1.00
12438;DHT22;6283;51.330;12.374;2022-12-29T16:22:59;10.90;1.00
12438;DHT22;6283;51.330;12.374;2022-12-29T16:25:28;11.10;1.00
12438;DHT22;6283;51.330;12.374;2022-12-29T16:27:57;10.70;1.00
12438;DHT22;6283;51.330;12.374;2022-12-29T16:30:31;10.80;1.00
12438;DHT22;6283;51.330;12.374;2022-12-29T16:32:59;10.70;1.00
12438;DHT22;6283;51.330;12.374;2022-12-29T16:35:38;10.70;1.00
12438;DHT22;6283;51.330;12.374;2022-12-29T16:38:19;10.60;1.00
12438;DHT22;6283;51.330;12.374;2022-12-29T16:41:07;10.60;1.00
12438;DHT22;6283;51.330;12.374;2022-12-29T16:43:34;10.60;1.00
12438;DHT22;6283;51.330;12.374;2022-12-29T16:46:24;10.60;1.00
12438;DHT22;6283;51.330;12.374;2022-12-29T16:48:53;10.50;1.00
12438;DHT22;6283;51.330;12.374;2022-12-29T16:51:32;10.40;1.00
12438;DHT22;6283;51.330;12.374;2022-12-29T16:53:59;10.40;1.00
12438;DHT22;6283;51.330;12.374;2022-12-29T16:56:27;10.60;1.00
12438;DHT22;6283;51.330;12.374;2022-12-29T16:59:04;10.40;1.00
12438;DHT22;6283;51.330;12.374;2022-12-29T17:01:34;10.50;1.00
12438;DHT22;6283;51.330;12.374;2022-12-29T17:04:08;10.40;1.00
12438;DHT22;6283;51.330;12.374;2022-12-29T17:06:34;10.20;1.00
12438;DHT22;6283;51.330;12.374;2022-12-29T17:09:00;10.30;1.00
12438;DHT22;6283;51.330;12.374;2022-12-29T17:11:31;10.20;1.00
12438;DHT22;6283;51.330;12.374;2022-12-29T17:14:36;10.10;1.00
12438;DHT22;6283;51.330;12.374;2022-12-29T17:17:10;10.00;1.00
12438;DHT22;6283;51.330;12.374;2022-12-29T17:19:37;10.20;1.00
12438;DHT22;6283;51.330;12.374;2022-12-29T17:22:09;10.10;1.00
12438;DHT22;6283;51.330;12.374;2022-12-29T17:24:35;9.90;1.00
12438;DHT22;6283;51.330;12.374;2022-12-29T17:27:01;9.90;1.00
12438;DHT22;6283;51.330;12.374;2022-12-29T17:29:35;9.90;1.00
12438;DHT22;6283;51.330;12.374;2022-12-29T17:32:03;10.00;1.00
12438;DHT22;6283;51.330;12.374;2022-12-29T17:34:29;9.80;1.00
12438;DHT22;6283;51.330;12.374;2022-12-29T17:36:56;9.80;1.00
12438;DHT22;6283;51.330;12.374;2022-12-29T17:39:21;9.70;1.00
12438;DHT22;6283;51.330;12.374;2022-12-29T17:41:47;9.90;1.00
12438;DHT22;6283;51.330;12.374;2022-12-29T17:44:18;9.90;1.00
12438;DHT22;6283;51.330;12.374;2022-12-29T17:46:45;9.60;1.00
12438;DHT22;6283;51.330;12.374;2022-12-29T17:51:47;9.80;1.00
12438;DHT22;6283;51.330;12.374;2022-12-29T17:54:23;9.80;1.00
12438;DHT22;6283;51.330;12.374;2022-12-29T17:56:49;9.70;1.00
12438;DHT22;6283;51.330;12.374;2022-12-29T17:59:16;9.70;1.00
12438;DHT22;6283;51.330;12.374;2022-12-29T18:01:44;9.60;1.00
12438;DHT22;6283;51.330;12.374;2022-12-29T18:04:15;9.50;1.00
12438;DHT22;6283;51.330;12.374;2022-12-29T18:06:42;9.70;1.00
12438;DHT22;6283;51.330;12.374;2022-12-29T18:09:08;9.60;1.00
12438;DHT22;6283;51.330;12.374;2022-12-29T18:11:37;9.60;1.00
12438;DHT22;6283;51.330;12.374;2022-12-29T18:14:04;9.60;1.00
12438;DHT22;6283;51.330;12.374;2022-12-29T18:16:29;9.60;1.00
12438;DHT22;6283;51.330;12.374;2022-12-29T18:18:55;9.60;1.00
12438;DHT22;6283;51.330;12.374;2022-12-29T18:21:23;9.50;1.00